METAR Data
IDs: Format: Raw Decoded Include TAF

Data at: 2310 UTC 25 Oct 2021

PAMK 252256Z AUTO 27013KT 10SM FEW022 SCT027 BKN034 M01/M04 A2938 RMK AO2 SLP952 T10061044 FZRANO
PAMK 251956Z AUTO 22008KT 9SM -SN FEW037 BKN046 M03/M04 A2937 RMK AO2 SNB1858 SLP945 P0000 T10281039 FZRANO
PAMK 251919Z AUTO 31006KT 4SM -SN BR FEW013 BKN038 OVC060 M03/M04 A2937 RMK AO2 SNB1858 P0000 FZRANO
PAMK 251912Z AUTO 29009KT 2 1/2SM -SN BR FEW013 BKN038 OVC046 M02/M04 A2937 RMK AO2 VIS 1 1/2V4 SNB1858 P0000 FZRANO
PAMK 251856Z AUTO 28010KT 10SM FEW024 BKN040 M03/M05 A2937 RMK AO2 SNE01 SLP947 P0000 T10331050 FZRANO
PAMK 251756Z AUTO 28007KT 9SM -SN FEW014 SCT018 SCT037 M03/M04 A2936 RMK AO2 SLP942 P0000 60000 T10281039 11011 21033 52003 FZRANO
PAMK 251656Z AUTO 29008KT 9SM -SN FEW012 SCT037 BKN070 M03/M04 A2936 RMK AO2 SLP943 P0000 T10331044 FZRANO
PAMK 251644Z AUTO 30006KT 10SM -SN FEW005 SCT013 OVC065 M02/M03 A2936 RMK AO2 P0000 FZRANO
PAMK 251631Z AUTO 31006KT 4SM -SN BR FEW005 BKN013 OVC028 M02/M03 A2936 RMK AO2 P0000 FZRANO
PAMK 251623Z AUTO 31008KT 1 1/4SM -SN BR SCT007 BKN011 OVC043 M02/M03 A2936 RMK AO2 P0000 FZRANO
PAMK 251614Z AUTO 26010KT 1 3/4SM -SN BR SCT009 BKN022 BKN043 M02/M03 A2935 RMK AO2 P0000 FZRANO
PAMK 251611Z AUTO 27012KT 1 3/4SM -SN BR FEW011 SCT022 BKN044 M02/M03 A2935 RMK AO2 P0000 FZRANO
PAMK 251556Z AUTO 28012KT 8SM -SN FEW017 SCT042 SCT055 M03/M04 A2935 RMK AO2 SNB46 SLP940 P0000 T10281044 FZRANO
PAMK 251456Z AUTO 29008KT 10SM SCT025 BKN033 M03/M05 A2935 RMK AO2 SLP939 60000 T10281050 56003 FZRANO
PAMK 251356Z AUTO 28008KT 10SM CLR M03/M04 A2935 RMK AO2 SNE03 SLP940 P0000 T10281044 FZRANO
PAMK 251306Z AUTO 29009KT 9SM SCT016 SCT035 BKN045 M02/M03 A2935 RMK AO2 SNE03 P0000 FZRANO
PAMK 251256Z AUTO 28011KT 4SM -SN BR BKN016 BKN024 OVC035 M02/M03 A2935 RMK AO2 SNB23 SLP942 P0000 T10171028 FZRANO
PAMK 251244Z AUTO 25011KT 2 1/2SM -SN BR SCT013 BKN024 OVC033 M02/M03 A2936 RMK AO2 VIS 1 1/2V5 SNB23 P0000 FZRANO
PAMK 251240Z AUTO 26013KT 4SM -SN BR FEW011 SCT022 OVC033 M02/M03 A2936 RMK AO2 SNB23 P0000 FZRANO
PAMK 251232Z AUTO 26012KT 9SM -SN FEW011 SCT020 BKN026 M02/M03 A2935 RMK AO2 SNB23 P0000 FZRANO
PAMK 251156Z AUTO 28011KT 10SM BKN036 M02/M03 A2936 RMK AO2 SLP943 60000 T10171028 11011 21028 58005 FZRANO
PAMK 251106Z AUTO 29010KT 10SM FEW015 SCT031 SCT039 M02/M03 A2936 RMK AO2 FZRANO
PAMK 251056Z AUTO 29012KT 9SM SCT015 BKN024 OVC055 M01/M02 A2936 RMK AO2 SNE56 SLP945 P0000 T10111022 FZRANO
PAMK 251017Z AUTO 25006KT 9SM -SN BKN021 BKN029 OVC037 M02/M02 A2937 RMK AO2 P0000 FZRANO
PAMK 250956Z AUTO 29011KT 6SM -SN BR FEW020 SCT028 OVC039 M01/M02 A2937 RMK AO2 SNB39 SLP948 P0000 T10111022 FZRANO
PAMK 250904Z AUTO 23007KT 10SM FEW020 SCT025 BKN039 M02/M03 A2937 RMK AO2 FZRANO
PAMK 250856Z AUTO 21007KT 10SM SCT022 BKN028 OVC039 M02/M03 A2937 RMK AO2 UPE0758SNB0758E26 SLP947 P0000 60000 T10221028 400061028 56004 FZRANO
PAMK 250756Z AUTO 22011KT 10SM UP FEW003 OVC025 M02/M03 A2938 RMK AO2 UPB17E21B50SNE17B21E50 SLP948 P0000 T10221028 FZRANO
PAMK 250742Z AUTO 21010KT 8SM -SN FEW005 BKN025 OVC032 M02/M03 A2937 RMK AO2 UPB17E21SNE17B21 P0000 FZRANO
PAMK 250733Z AUTO 21009KT 9SM -SN FEW005 BKN013 BKN032 M03/M03 A2937 RMK AO2 UPB17E21SNE17B21 P0000 FZRANO
PAMK 250703Z AUTO 22010KT 9SM BKN005 OVC009 M02/M03 A2938 RMK AO2 SNE02 CIG 002V006 P0000 FZRANO
PAMK 250656Z AUTO 22010KT 5SM -SN BR SCT005 BKN009 OVC015 M02/M03 A2938 RMK AO2 UPB21E26SNE21B26 CIG 007V012 SLP948 P0000 T10221028 FZRANO
PAMK 250649Z AUTO 22010KT 1 1/4SM -SN BR SCT005 BKN009 OVC015 M02/M03 A2938 RMK AO2 UPB21E26SNE21B26 CIG 007V012 P0000 FZRANO
PAMK 250640Z AUTO 21010KT 2 1/2SM -SN BR BKN007 BKN015 OVC026 M02/M03 A2938 RMK AO2 VIS 1V5 UPB21E26SNE21B26 CIG 005V012 P0000 FZRANO
PAMK 250628Z AUTO 21010KT 1 3/4SM -SN BR FEW005 SCT012 BKN019 M02/M03 A2938 RMK AO2 UPB21E26SNE21B26 P0000 FZRANO
PAMK 250616Z AUTO 21010KT 7SM -SN SCT007 BKN025 BKN031 M02/M03 A2938 RMK AO2 P0000 FZRANO
PAMK 250605Z AUTO 21011KT 6SM -SN BR SCT003 BKN009 BKN012 M02/M03 A2938 RMK AO2 P0000 FZRANO
PAMK 250556Z AUTO 21009KT 5SM -SN BR SCT003 BKN011 OVC021 M02/M03 A2938 RMK AO2 UPB31E38SNB04E31B38 CIG 007V013 SLP951 P0000 60000 T10221028 10000 21028 58003 FZRANO
PAMK 250552Z AUTO 21010KT 2 1/2SM -SN BR SCT003 BKN011 OVC036 M02/M03 A2938 RMK AO2 VIS 1V5 UPB31E38SNB04E31B38 CIG 008V013 P0000 FZRANO
PAMK 250545Z AUTO 21009KT 5SM -SN BR BKN003 BKN011 OVC034 M02/M03 A2938 RMK AO2 UPB31E38SNB04E31B38 P0000 FZRANO
PAMK 250536Z AUTO 20009KT 9SM UP SCT003 BKN013 OVC036 M02/M03 A2938 RMK AO2 UPB31SNB04E31 P0000 FZRANO
PAMK 250514Z AUTO 21010KT 9SM FEW003 SCT013 M03/M03 A2938 RMK AO2 SNB04E14 P0000 FZRANO
PAMK 250504Z AUTO 21010KT 10SM -SN BKN003 M03/M03 A2938 RMK AO2 SNB04 P0000 FZRANO
PAMK 250456Z AUTO 21009KT 9SM SCT003 BKN007 M02/M03 A2939 RMK AO2 SNE55 SLP952 P0000 T10221028 FZRANO
PAMK 250445Z AUTO 22011KT 7SM -SN BKN003 BKN007 M01/M02 A2939 RMK AO2 CIG 002V006 P0000 FZRANO
PAMK 250432Z AUTO 22010KT 3SM -SN BR BKN007 BKN015 M01/M02 A2939 RMK AO2 CIG 005V011 P0000 FZRANO
PAMK 250429Z AUTO 21008KT 1 3/4SM -SN BR BKN007 BKN015 BKN023 M01/M02 A2939 RMK AO2 VIS 1V4 CIG 006V011 P0000 FZRANO
PAMK 250422Z AUTO 21008KT 2 1/2SM -SN BR SCT007 BKN015 BKN023 M02/M02 A2939 RMK AO2 VIS 1V5 P0000 FZRANO
PAMK 250412Z AUTO 21009KT 10SM FEW007 BKN013 BKN023 M02/M02 A2939 RMK AO2 SNE03 P0000 FZRANO
PAMK 250356Z AUTO 21008KT 7SM -SN SCT009 BKN015 OVC021 M01/M02 A2939 RMK AO2 SNB07 SLP955 P0000 T10111017 FZRANO
PAMK 250352Z AUTO 22007KT 2 1/2SM -SN BR SCT009 BKN015 OVC019 M01/M02 A2939 RMK AO2 SNB07 P0000 FZRANO
PAMK 250324Z AUTO 22010KT 9SM FEW009 BKN018 M01/M02 A2940 RMK AO2 SNB07E24 P0000 FZRANO
PAMK 250310Z AUTO 22011KT 2 1/2SM -SN BR FEW009 BKN018 BKN025 M01/M02 A2940 RMK AO2 SNB07 P0000 FZRANO
PAMK 250256Z AUTO 22010KT 10SM FEW016 BKN023 M01/M02 A2940 RMK AO2 SNB01E12 SLP957 P0000 60000 T10111017 58010 FZRANO
PAMK 250219Z AUTO 23010KT 10SM FEW016 SCT020 BKN025 M01/M02 A2941 RMK AO2 SNB01E12 P0000 FZRANO
PAMK 250156Z AUTO 23011KT 10SM SCT016 M01/M02 A2941 RMK AO2 UPE16 SLP960 P0000 T10061017 FZRANO
PAMK 250145Z AUTO 23011KT 10SM SCT016 M01/M02 A2941 RMK AO2 UPE16 P0000 FZRANO
PAMK 250138Z AUTO 23013KT 10SM BKN016 BKN048 M01/M01 A2941 RMK AO2 UPE16 P0000 FZRANO
PAMK 250119Z AUTO 22012KT 10SM FEW008 SCT013 BKN046 00/M01 A2941 RMK AO2 UPE16 P0000 FZRANO
PAMK 250056Z AUTO 23014KT 5SM UP BR BKN011 BKN016 OVC035 00/M01 A2942 RMK AO2 SLP963 P0000 T00001011 FZRANO
PAMK 250041Z AUTO 22012KT 10SM UP BKN013 BKN021 OVC035 00/M02 A2942 RMK AO2 P0000 FZRANO
PAMK 250029Z AUTO 22015KT 10SM FEW014 BKN032 OVC043 00/M02 A2942 RMK AO2 UPE24 P0000 FZRANO
PAMK 250017Z AUTO 22016KT 10SM UP SCT013 BKN020 BKN029 00/M02 A2942 RMK AO2 P0000 FZRANO
PAMK 250004Z AUTO 22015KT 9SM UP FEW007 BKN013 BKN039 00/M02 A2943 RMK AO2 P0000 FZRANO
PAMK 242356Z AUTO 22017KT 10SM UP SCT009 BKN015 00/M01 A2943 RMK AO2 SNB08E21 SLP966 P0000 60000 T00001011 10000 21022 56006 FZRANO
PAMK 242351Z AUTO 22017KT 10SM UP SCT007 BKN013 BKN033 00/M01 A2943 RMK AO2 SNB08E21 P0000 FZRANO
PAMK 242338Z AUTO 22016G20KT 10SM UP OVC008 00/M01 A2943 RMK AO2 SNB08E21 CIG 005V012 P0000 FZRANO
PAMK 242327Z AUTO 22013G22KT 10SM UP OVC010 00/M01 A2943 RMK AO2 SNB08E21 CIG 006V012 P0000 FZRANO
PAMK 242256Z AUTO 22016KT 9SM UP OVC008 00/M01 A2944 RMK AO2 UPB01E08B53SNE01 CIG 007V013 SLP969 P0000 T00001011 FZRANO
PAMK 242156Z AUTO 22015G22KT 9SM -SN OVC006 M01/M02 A2944 RMK AO2 SNB51 SLP972 P0000 T10061017 FZRANO
PAMK 242056Z AUTO 22016KT 10SM OVC006 M01/M02 A2944 RMK AO2 SLP972 T10111017 55001 FZRANO
PAMK 242044Z AUTO 22016KT 10SM OVC006 M01/M02 A2944 RMK AO2 FZRANO
PAMK 242026Z AUTO 22016KT 10SM OVC004 M01/M02 A2944 RMK AO2 FZRANO
PAMK 241956Z AUTO 21015KT 10SM OVC006 M01/M02 A2944 RMK AO2 SLP971 T10111022 FZRANO
PAMK 241856Z AUTO 21013KT 10SM OVC006 M02/M03 A2944 RMK AO2 SLP971 T10221028 FZRANO
PAMK 241829Z AUTO 21012KT 10SM BKN008 BKN013 M02/M03 A2944 RMK AO2 CIG 005V010 FZRANO
PAMK 241824Z AUTO 21012KT 10SM SCT008 SCT013 M02/M03 A2944 RMK AO2 FZRANO
PAMK 241756Z AUTO 21011KT 10SM OVC010 M02/M03 A2945 RMK AO2 CIG 007V012 SLP973 60000 T10221028 11006 21022 58002 FZRANO
PAMK 241740Z AUTO 21012KT 10SM SCT004 OVC010 M02/M02 A2945 RMK AO2 CIG 009V013 FZRANO
PAMK 241717Z AUTO 22014KT 10SM OVC004 M02/M02 A2945 RMK AO2 FZRANO
PAMK 241613Z AUTO 21013KT 8SM -SN BKN006 OVC011 M02/M02 A2946 RMK AO2 SNB03 CIG 005V010 P0000 FZRANO
PAMK 241603Z AUTO 21013KT 8SM -SN SCT006 OVC011 M02/M02 A2946 RMK AO2 SNB03 P0000 FZRANO
PAMK 241556Z AUTO 21014KT 9SM BKN011 OVC017 M02/M02 A2946 RMK AO2 UPB17E19SNE17B23E56 SLP976 P0000 T10171022 FZRANO
PAMK 241510Z AUTO 21012KT 8SM -SN OVC013 M02/M02 A2946 RMK AO2 P0000 FZRANO
PAMK 241456Z AUTO 21012KT 7SM -SN OVC016 M02/M02 A2945 RMK AO2 SNB55 SLP975 P0000 60000 T10171022 53006 FZRANO
PAMK 241447Z AUTO 21011KT 10SM OVC016 M02/M02 A2945 RMK AO2 FZRANO
PAMK 241432Z AUTO 22012KT 10SM BKN014 M02/M02 A2945 RMK AO2 FZRANO
PAMK 241356Z AUTO 21011KT 10SM FEW005 SCT017 BKN037 M02/M02 A2945 RMK AO2 UPB06E24B42E53SNB24E42 SLP972 P0000 T10171022 FZRANO
PAMK 241349Z AUTO 21012KT 10SM UP FEW005 SCT013 M02/M02 A2945 RMK AO2 UPB06E24B42SNB24E42 P0000 FZRANO
PAMK 241339Z AUTO 21012KT 5SM -SN BR FEW005 BKN010 OVC018 M01/M02 A2944 RMK AO2 UPB06E24SNB24 P0000 FZRANO
PAMK 241256Z AUTO 21012KT 10SM BKN007 OVC012 M01/M01 A2944 RMK AO2 UPB37E52SNE01 SLP970 P0000 T10061011 FZRANO
PAMK 241156Z AUTO 21012KT 9SM -SN OVC007 M01/M01 A2943 RMK AO2 RAB01E20UPB44E51SNB51 CIG 005V010 SLP968 P0000 60000 T10061011 10006 21006 51004 FZRANO
PAMK 241139Z AUTO 21010KT 10SM BKN009 BKN013 OVC020 00/M01 A2944 RMK AO2 RAB01E20 CIG 005V010 P0000 FZRANO
PAMK 241130Z AUTO 22012KT 10SM FEW009 BKN020 OVC026 00/M01 A2943 RMK AO2 RAB01E20 P0000 FZRANO
PAMK 241111Z AUTO 23012KT 9SM -RA FEW017 BKN028 BKN110 01/M01 A2944 RMK AO2 RAB01 P0000 FZRANO